createdAt,value
2023-12-22T00:00:26.613Z,99476.78
2023-12-22T00:05:29.778Z,99524.41
2023-12-22T00:10:31.495Z,99577.50
2023-12-22T00:15:33.120Z,99567.69
2023-12-22T00:20:36.217Z,99586.72
2023-12-22T00:25:37.884Z,99565.03
2023-12-22T00:30:39.603Z,99570.75
2023-12-22T00:35:42.624Z,99573.59
2023-12-22T00:40:44.375Z,99561.34
2023-12-22T00:45:46.080Z,99559.06
2023-12-22T00:50:49.180Z,99539.63
2023-12-22T00:55:50.991Z,99540.91
2023-12-22T01:00:52.661Z,99570.84
2023-12-22T01:05:55.999Z,99579.03
2023-12-22T01:10:57.740Z,99593.25
2023-12-22T01:15:59.423Z,99567.94
2023-12-22T01:21:02.524Z,99573.59
2023-12-22T01:26:04.245Z,99570.38
2023-12-22T01:31:05.899Z,99534.25
2023-12-22T01:36:09.052Z,99572.59
2023-12-22T01:41:10.785Z,99601.16
2023-12-22T01:46:13.588Z,99591.53
2023-12-22T01:51:16.775Z,99604.72
2023-12-22T01:56:18.448Z,99575.56
2023-12-22T02:01:21.243Z,99516.13
2023-12-22T02:06:24.910Z,99612.97
2023-12-22T02:11:26.558Z,99603.22
2023-12-22T02:16:37.943Z,99462.50
2023-12-22T02:22:08.849Z,99600.78
2023-12-22T02:27:29.440Z,99576.38
2023-12-22T02:32:35.270Z,99616.56
2023-12-22T02:37:39.644Z,99605.84
2023-12-22T02:42:43.567Z,99602.59
2023-12-22T02:47:45.644Z,99584.66
2023-12-22T02:52:47.579Z,99590.03
2023-12-22T02:57:51.164Z,99586.06
2023-12-22T03:02:53.104Z,99572.84
2023-12-22T03:07:55.056Z,99589.72
2023-12-22T03:12:58.121Z,99591.19
2023-12-22T03:17:59.818Z,99591.75
2023-12-22T03:23:01.528Z,99601.31
2023-12-22T03:28:05.194Z,99608.41
2023-12-22T03:33:06.899Z,99578.88
2023-12-22T03:38:08.690Z,99591.75
2023-12-22T03:43:11.714Z,99597.66
2023-12-22T03:48:14.329Z,99605.50
2023-12-22T03:53:16.075Z,99593.84
2023-12-22T03:58:19.637Z,99598.94
2023-12-22T04:03:21.556Z,99598.00
2023-12-22T04:08:23.428Z,99603.84
2023-12-22T04:13:26.761Z,99603.22
2023-12-22T04:18:28.441Z,99591.81
2023-12-22T04:23:30.357Z,99587.00
2023-12-22T04:28:33.418Z,99593.41
2023-12-22T04:33:35.015Z,99597.63
2023-12-22T04:38:36.484Z,99590.66
2023-12-22T04:43:39.583Z,99567.03
2023-12-22T04:48:41.434Z,99576.16
2023-12-22T04:53:43.290Z,99563.28
2023-12-22T04:58:46.526Z,99562.91
2023-12-22T05:03:49.544Z,99566.63
2023-12-22T05:08:51.391Z,99570.34
2023-12-22T05:13:54.463Z,99605.28
2023-12-22T05:18:56.049Z,99634.53
2023-12-22T05:23:57.716Z,99620.78
2023-12-22T05:29:01.073Z,99566.91
2023-12-22T05:34:03.287Z,99634.47
2023-12-22T05:39:04.951Z,99638.75
2023-12-22T05:44:07.923Z,99618.78
2023-12-22T05:49:09.758Z,99622.53
2023-12-22T05:54:12.074Z,99612.91
2023-12-22T05:59:15.164Z,99624.13
2023-12-22T06:04:16.666Z,99643.38
2023-12-22T06:09:18.414Z,99646.53
2023-12-22T06:14:21.421Z,99634.44
2023-12-22T06:19:23.308Z,99644.38
2023-12-22T06:24:25.124Z,99634.44
2023-12-22T06:29:30.130Z,99629.88
2023-12-22T06:34:33.266Z,99635.84
2023-12-22T06:39:34.957Z,99639.72
2023-12-22T06:44:38.114Z,99664.72
2023-12-22T06:49:39.925Z,99658.91
2023-12-22T06:54:41.667Z,99682.28
2023-12-22T06:59:46.028Z,99680.91
2023-12-22T07:05:27.290Z,99683.78
2023-12-22T07:10:30.023Z,99644.69
2023-12-22T07:15:33.070Z,99695.97
2023-12-22T07:20:35.142Z,99687.97
2023-12-22T07:25:37.604Z,99693.75
2023-12-22T07:30:40.643Z,99689.34
2023-12-22T07:35:43.136Z,99673.13
2023-12-22T07:40:46.203Z,99692.63
2023-12-22T07:45:49.247Z,99684.34
2023-12-22T07:50:51.867Z,99660.00
2023-12-22T07:55:53.793Z,99689.28
2023-12-22T08:00:56.950Z,99696.88
2023-12-22T08:05:58.819Z,99700.75
2023-12-22T08:11:01.113Z,99691.38
2023-12-22T08:16:05.259Z,99681.84
2023-12-22T08:21:14.621Z,99675.63
2023-12-22T08:26:23.128Z,99698.28
2023-12-22T08:31:26.254Z,99592.47
2023-12-22T08:36:27.916Z,99694.81
2023-12-22T08:41:29.633Z,99704.91
2023-12-22T08:46:32.723Z,99694.97
2023-12-22T08:51:34.739Z,99696.50
2023-12-22T08:56:36.892Z,99705.09
2023-12-22T09:01:39.968Z,99702.59
2023-12-22T09:06:41.637Z,99682.84
2023-12-22T09:11:43.326Z,99600.19
2023-12-22T09:16:46.565Z,99692.97
2023-12-22T09:21:48.209Z,99688.13
2023-12-22T09:26:49.845Z,99682.72
2023-12-22T09:31:53.011Z,99663.22
2023-12-22T09:36:55.191Z,99662.00
2023-12-22T09:41:57.076Z,99657.97
2023-12-22T09:47:00.989Z,99659.78
2023-12-22T09:52:03.217Z,99643.72
2023-12-22T09:57:14.986Z,99647.00
2023-12-22T10:02:28.480Z,99608.31
2023-12-22T10:07:31.696Z,99634.38
2023-12-22T10:12:35.190Z,99634.38
2023-12-22T10:17:38.610Z,99628.41
2023-12-22T10:22:40.333Z,99614.84
2023-12-22T10:27:43.046Z,99601.94
2023-12-22T10:32:46.089Z,99594.66
2023-12-22T10:37:48.215Z,99590.22
2023-12-22T10:42:50.458Z,99589.50
2023-12-22T10:47:54.312Z,99593.75
2023-12-22T10:52:56.312Z,99584.06
2023-12-22T10:58:02.424Z,99568.16
2023-12-22T11:03:09.017Z,99546.19
2023-12-22T11:08:12.815Z,99565.97
2023-12-22T11:13:17.171Z,99575.09
2023-12-22T11:18:21.372Z,99570.00
2023-12-22T11:23:24.770Z,99558.06
2023-12-22T11:28:26.425Z,99551.91
2023-12-22T11:33:30.585Z,99558.31
2023-12-22T11:38:32.281Z,99550.81
2023-12-22T11:43:36.134Z,99555.94
2023-12-22T11:48:47.936Z,99515.03
2023-12-22T11:53:49.718Z,99549.53
2023-12-22T11:58:53.509Z,99528.88
2023-12-22T12:03:58.202Z,99493.47
2023-12-22T12:09:01.436Z,99536.22
2023-12-22T12:14:10.291Z,99532.53
2023-12-22T12:19:13.452Z,99540.88
2023-12-22T12:24:15.187Z,99537.03
2023-12-22T12:29:17.735Z,99512.44
2023-12-22T12:34:21.451Z,99523.72
2023-12-22T12:39:25.026Z,99537.09
2023-12-22T12:44:27.923Z,99537.19
2023-12-22T12:49:31.133Z,99518.59
2023-12-22T12:54:33.264Z,99526.41
2023-12-22T12:59:35.018Z,99521.56
2023-12-22T13:04:41.025Z,99518.94
2023-12-22T13:09:42.797Z,99525.25
2023-12-22T13:14:44.705Z,99486.63
2023-12-22T13:19:47.981Z,99528.16
2023-12-22T13:24:56.304Z,99501.97
2023-12-22T13:29:57.936Z,99504.94
2023-12-22T13:35:01.102Z,99514.81
2023-12-22T13:40:08.695Z,99524.91
2023-12-22T13:45:11.997Z,99525.25
2023-12-22T13:50:18.347Z,99519.84
2023-12-22T13:55:21.249Z,99358.69
2023-12-22T14:00:25.967Z,99514.44
2023-12-22T14:05:31.837Z,99530.47
2023-12-22T14:10:36.232Z,99535.44
2023-12-22T14:15:44.666Z,99541.84
2023-12-22T14:20:48.741Z,99535.44
2023-12-22T14:25:50.490Z,99539.59
2023-12-22T14:30:52.231Z,99535.31
2023-12-22T14:35:55.465Z,99552.63
2023-12-22T14:40:57.126Z,99563.47
2023-12-22T14:45:59.019Z,99564.06
2023-12-22T14:51:02.164Z,99561.28
2023-12-22T14:56:04.340Z,99560.09
2023-12-22T15:01:06.029Z,99537.88
2023-12-22T15:06:10.508Z,99584.66
2023-12-22T15:11:13.343Z,99590.59
2023-12-22T15:16:15.137Z,99593.06
2023-12-22T15:21:21.860Z,99611.88
2023-12-22T15:26:24.127Z,99543.66
2023-12-22T15:31:26.057Z,99604.88
2023-12-22T15:36:29.039Z,99585.00
2023-12-22T15:41:30.792Z,99584.66
2023-12-22T15:46:32.831Z,99604.88
2023-12-22T15:51:35.875Z,99610.16
2023-12-22T15:56:37.773Z,99618.91
2023-12-22T16:01:43.726Z,99583.81
2023-12-22T16:06:47.179Z,99619.88
2023-12-22T16:11:48.860Z,99633.31
2023-12-22T16:16:50.723Z,99606.19
2023-12-22T16:21:53.747Z,99629.56
2023-12-22T16:26:55.381Z,99626.47
2023-12-22T16:31:57.056Z,99615.78
2023-12-22T16:37:00.059Z,99651.84
2023-12-22T16:42:01.860Z,99638.81
2023-12-22T16:47:03.945Z,99627.69
2023-12-22T16:52:08.339Z,99648.34
2023-12-22T16:57:10.016Z,99644.78
2023-12-22T17:02:27.575Z,99558.00
2023-12-22T17:07:37.935Z,99666.72
2023-12-22T17:12:41.189Z,99666.00
2023-12-22T17:17:43.188Z,99670.97
2023-12-22T17:22:46.590Z,99674.44
2023-12-22T17:27:48.610Z,99677.91
2023-12-22T17:32:50.753Z,99685.72
2023-12-22T17:37:54.070Z,99652.38
2023-12-22T17:42:55.831Z,99664.44
2023-12-22T17:47:57.663Z,99685.03
2023-12-22T17:53:00.832Z,99697.78
2023-12-22T17:58:02.525Z,99695.16
2023-12-22T18:03:04.815Z,99580.13
2023-12-22T18:08:08.168Z,99701.53
2023-12-22T18:13:09.844Z,99673.28
2023-12-22T18:18:11.634Z,99742.03
2023-12-22T18:23:14.873Z,99714.13
2023-12-22T18:28:16.546Z,99705.97
2023-12-22T18:33:18.344Z,99723.91
2023-12-22T18:38:21.459Z,99715.09
2023-12-22T18:43:23.150Z,99723.44
2023-12-22T18:48:24.877Z,99725.34
2023-12-22T18:53:27.952Z,99676.13
2023-12-22T18:58:29.748Z,99743.25
2023-12-22T19:03:31.619Z,99735.06
2023-12-22T19:08:34.850Z,99733.25
2023-12-22T19:13:36.980Z,99710.09
2023-12-22T19:18:39.112Z,99698.72
2023-12-22T19:23:42.421Z,99770.13
2023-12-22T19:28:44.348Z,99759.75
2023-12-22T19:33:46.145Z,99752.06
2023-12-22T19:38:49.221Z,99768.56
2023-12-22T19:43:50.891Z,99777.28
2023-12-22T19:48:52.781Z,99707.28
2023-12-22T19:53:55.831Z,99789.34
2023-12-22T19:58:57.570Z,99816.78
2023-12-22T20:03:59.558Z,99820.34
2023-12-22T20:09:02.981Z,99822.13
2023-12-22T20:14:04.719Z,99832.28
2023-12-22T20:19:06.636Z,99817.13
2023-12-22T20:24:09.836Z,99823.69
2023-12-22T20:29:11.643Z,99831.84
2023-12-22T20:34:13.391Z,99832.50
2023-12-22T20:39:16.417Z,99842.22
2023-12-22T20:44:18.123Z,99843.16
2023-12-22T20:49:19.955Z,99751.34
2023-12-22T20:54:23.105Z,99859.41
2023-12-22T20:59:24.808Z,99888.66
2023-12-22T21:04:26.525Z,99893.56
2023-12-22T21:09:29.722Z,99925.94
2023-12-22T21:14:31.361Z,99924.59
2023-12-22T21:19:33.243Z,99923.69
2023-12-22T21:24:36.299Z,99931.19
2023-12-22T21:29:41.171Z,99932.22
2023-12-22T21:34:42.878Z,99931.22
2023-12-22T21:39:45.864Z,99925.16
2023-12-22T21:44:47.608Z,99946.88
2023-12-22T21:49:49.399Z,99946.72
2023-12-22T21:54:52.451Z,100012.75
2023-12-22T21:59:54.108Z,100004.84
2023-12-22T22:04:55.803Z,100009.28
2023-12-22T22:09:59.073Z,100029.47
2023-12-22T22:15:01.009Z,100048.78
2023-12-22T22:20:03.669Z,100065.25
2023-12-22T22:25:07.324Z,100096.22
2023-12-22T22:30:09.528Z,100070.88
2023-12-22T22:35:11.279Z,100100.47
2023-12-22T22:40:14.709Z,100109.13
2023-12-22T22:45:16.463Z,100115.97
2023-12-22T22:50:18.462Z,100115.88
2023-12-22T22:55:21.537Z,100126.72
2023-12-22T23:00:23.183Z,100126.03
2023-12-22T23:05:25.019Z,100137.84
2023-12-22T23:10:28.040Z,100159.13
2023-12-22T23:15:29.720Z,100168.09
2023-12-22T23:20:31.534Z,100174.78
2023-12-22T23:25:34.820Z,100171.44
2023-12-22T23:30:36.621Z,100182.53
2023-12-22T23:35:38.296Z,100182.31
2023-12-22T23:40:41.303Z,100196.44
2023-12-22T23:45:42.961Z,100201.69
2023-12-22T23:50:44.792Z,100222.44
2023-12-22T23:55:47.844Z,100220.16
